Fairpartner — PHEC — position and weather

sailwx.info

Track history (hours):
 
Tides and Currents Weather Stations Pressure Air Temp Water Temp Dewpoint Dewpoint Depression Visibility Wind Speed Wind Dir Waves Ship Positions

Fairpartner

Last reported at 2016-Dec-02 08:33 UTC. Time now 2016-Dec-03 13:42 UTC.
Position N 49°24' W 004°32'.

Length 143 m; beam 27 m.

Type: Cargo ship. MMSI: 246466992.

Date/timePositionNaut miles runAvg speedWind from/ knotsBaromVisibWave heightAir tempDewpointWater temp
2016-Dec-02 08:33N 49°24' W 004°32'2215.0
2016-Dec-02 07:04N 49°34' W 004°02'714.6
2016-Dec-02 06:33N 49°38' W 003°52'1514.9
2016-Dec-02 05:34N 49°46' W 003°32'1615.8
2016-Dec-02 04:34N 49°53' W 003°11'1717.1
2016-Dec-02 03:34N 50°01' W 002°47'2018.5
2016-Dec-02 02:28N 50°07' W 002°17'3517.8
2016-Dec-02 00:29N 50°16' W 001°24'1415.4
2016-Dec-01 23:33N 50°20' W 001°03'1613.5
2016-Dec-01 22:22N 50°25' W 000°39'1112.9
2016-Dec-01 21:33N 50°27' W 000°22'1413.7
2016-Dec-01 20:33N 50°30' W 000°01'1514.7
2016-Dec-01 19:32N 50°35' E 000°21'2216.1
2016-Dec-01 18:08N 50°46' E 000°52'1016.7
2016-Dec-01 17:33N 50°52' E 001°04'1616.0
2016-Dec-01 16:34N 51°02' E 001°23'1414.3
2016-Dec-01 15:33N 51°11' E 001°41'1313.3
2016-Dec-01 14:33N 51°23' E 001°51'1313.4
2016-Dec-01 13:34N 51°34' E 002°03'1414.3
2016-Dec-01 12:33N 51°46' E 002°17'7115.9
2016-Dec-01 08:04N 52°57' E 002°14'917.1
2016-Dec-01 07:33N 53°02' E 002°02'1716.7
2016-Dec-01 06:33N 53°12' E 001°40'6616.3
2016-Dec-01 02:30N 54°04' E 000°32'1515.5
2016-Dec-01 01:33N 54°16' E 000°18'1515.2
2016-Dec-01 00:33N 54°29' E 000°03'1515.0
2016-Nov-30 23:33N 54°41' W 000°12'4515.0
2016-Nov-30 20:33N 55°18' W 000°55'1515.1
2016-Nov-30 19:33N 55°30' W 001°12'2015.5
2016-Nov-30 18:17N 55°44' W 001°36'1216.2
2016-Nov-30 17:33N 55°53' W 001°51'1616.2
2016-Nov-30 16:34N 56°01' W 002°16'1616.2
2016-Nov-30 15:33N 56°06' W 002°44'1414.4
2016-Nov-30 14:34N 56°03' W 003°09'10 0.2
2016-Nov-28 12:32N 56°01' W 003°26'1010.0
2016-Nov-28 11:33N 56°03' W 003°09'6 5.7
2016-Nov-28 10:33N 56°04' W 002°59'5 5.2
2016-Nov-28 09:33N 56°06' W 002°50'6 5.6
2016-Nov-28 08:33N 56°07' W 002°40'6 5.7
2016-Nov-28 07:33N 56°07' W 002°30'6 6.0
2016-Nov-28 06:33N 56°06' W 002°19'6 6.2
2016-Nov-28 05:33N 56°03' W 002°09'7 7.0
2016-Nov-28 04:33N 55°59' W 001°59'7 6.7
2016-Nov-28 03:33N 55°54' W 001°50'7 6.8
2016-Nov-28 02:28N 55°49' W 001°40'13 6.5
2016-Nov-28 00:31N 55°41' W 001°23'7 6.6
2016-Nov-27 23:30N 55°35' W 001°19'7 7.1
2016-Nov-27 22:33N 55°28' W 001°19'7 7.3
2016-Nov-27 21:33N 55°21' W 001°18'8 7.7
2016-Nov-27 20:33N 55°13' W 001°17'8 7.8
2016-Nov-27 19:33N 55°06' W 001°17'6 6.4
2016-Nov-27 18:33N 55°01' W 001°24'4 3.9
2016-Nov-27 17:32N 54°59' W 001°31'1 0.0
2016-Nov-25 19:05N 54°58' W 001°32'0 0.0
2016-Nov-25 03:23N 54°58' W 001°32'0 0.0
2016-Nov-25 02:32N 54°58' W 001°32'0 0.0
2016-Nov-25 01:32N 54°58' W 001°32'0 0.0
2016-Nov-25 00:32N 54°58' W 001°32'0 0.0
2016-Nov-24 23:29N 54°58' W 001°32'0 0.0
2016-Nov-24 22:29N 54°58' W 001°32'0 0.0
2016-Nov-24 21:32N 54°58' W 001°32'0 0.0
2016-Nov-24 13:23N 54°58' W 001°32'2 1.8
2016-Nov-24 12:33N 54°59' W 001°31'6 5.9
2016-Nov-24 11:33N 55°01' W 001°21'1 1.5
2016-Nov-24 10:33N 55°03' W 001°19'0 0.3
2016-Nov-24 09:33N 55°02' W 001°20'7 7.0
2016-Nov-24 08:33N 54°58' W 001°09'3417.0
2016-Nov-24 06:33N 54°40' W 000°20'1717.1
2016-Nov-24 05:33N 54°27' E 000°00'1717.0
2016-Nov-24 04:33N 54°14' E 000°18'6415.5
2016-Nov-24 00:25N 53°22' E 001°23'1415.7
2016-Nov-23 23:33N 53°13' E 001°39'9315.3
2016-Nov-23 17:31N 51°55' E 003°03'1515.3
2016-Nov-23 16:33N 51°43' E 003°16'1313.1
2016-Nov-23 15:33N 51°32' E 003°26'1010.3
2016-Nov-23 14:33N 51°27' E 003°40'2 1.6
2016-Nov-23 13:33N 51°28' E 003°42'0 0.0
2016-Nov-23 12:27N 51°28' E 003°42'0 0.0
2016-Nov-23 11:33N 51°28' E 003°42'0 0.0
2016-Nov-23 10:30N 51°28' E 003°42'0 0.0
2016-Nov-23 09:30N 51°28' E 003°42'0 0.0
2016-Nov-23 08:33N 51°28' E 003°42'0 0.0
2016-Nov-23 07:33N 51°28' E 003°42'0 0.0
2016-Nov-23 06:33N 51°28' E 003°42'0 0.0
2016-Nov-23 03:33N 51°28' E 003°42'0 0.0
2016-Nov-23 02:33N 51°28' E 003°42'0 0.0
2016-Nov-23 00:33N 51°28' E 003°42'0 0.0
2016-Nov-22 23:33N 51°28' E 003°42'0 0.0
2016-Nov-22 22:33N 51°28' E 003°42'0 0.0
2016-Nov-22 20:33N 51°28' E 003°42'0 0.0
2016-Nov-22 19:34N 51°28' E 003°42'0 0.0
2016-Nov-22 17:33N 51°28' E 003°42'0 0.0
2016-Nov-22 16:33N 51°28' E 003°42'0 0.0
2016-Nov-22 15:34N 51°28' E 003°42'0 0.0
2016-Nov-22 14:34N 51°28' E 003°42'0 0.0
2016-Nov-22 13:34N 51°28' E 003°42'0 0.0
2016-Nov-22 10:34N 51°28' E 003°42'0 0.0
2016-Nov-22 09:34N 51°28' E 003°42'0 0.0
2016-Nov-22 08:34N 51°28' E 003°42'  
Track history (hours):
 
Tides and Currents Weather Stations Pressure Air Temp Water Temp Dewpoint Dewpoint Depression Visibility Wind Speed Wind Dir Waves Ship Positions

Fairpartner

Last reported at 2016-Dec-02 08:33 UTC. Time now 2016-Dec-03 13:42 UTC.
Position N 49°24' W 004°32'.

Length 143 m; beam 27 m.

Type: Cargo ship. MMSI: 246466992.

Date/timePositionNaut miles runAvg speedWind from/ knotsBaromVisibWave heightAir tempDewpointWater temp
2016-Dec-02 08:33N 49°24' W 004°32'2215.0
2016-Dec-02 07:04N 49°34' W 004°02'714.6
2016-Dec-02 06:33N 49°38' W 003°52'1514.9
2016-Dec-02 05:34N 49°46' W 003°32'1615.8
2016-Dec-02 04:34N 49°53' W 003°11'1717.1
2016-Dec-02 03:34N 50°01' W 002°47'2018.5
2016-Dec-02 02:28N 50°07' W 002°17'3517.8
2016-Dec-02 00:29N 50°16' W 001°24'1415.4
2016-Dec-01 23:33N 50°20' W 001°03'1613.5
2016-Dec-01 22:22N 50°25' W 000°39'1112.9
2016-Dec-01 21:33N 50°27' W 000°22'1413.7
2016-Dec-01 20:33N 50°30' W 000°01'1514.7
2016-Dec-01 19:32N 50°35' E 000°21'2216.1
2016-Dec-01 18:08N 50°46' E 000°52'1016.7
2016-Dec-01 17:33N 50°52' E 001°04'1616.0
2016-Dec-01 16:34N 51°02' E 001°23'1414.3
2016-Dec-01 15:33N 51°11' E 001°41'1313.3
2016-Dec-01 14:33N 51°23' E 001°51'1313.4
2016-Dec-01 13:34N 51°34' E 002°03'1414.3
2016-Dec-01 12:33N 51°46' E 002°17'7115.9
2016-Dec-01 08:04N 52°57' E 002°14'917.1
2016-Dec-01 07:33N 53°02' E 002°02'1716.7
2016-Dec-01 06:33N 53°12' E 001°40'6616.3
2016-Dec-01 02:30N 54°04' E 000°32'1515.5
2016-Dec-01 01:33N 54°16' E 000°18'1515.2
2016-Dec-01 00:33N 54°29' E 000°03'1515.0
2016-Nov-30 23:33N 54°41' W 000°12'4515.0
2016-Nov-30 20:33N 55°18' W 000°55'1515.1
2016-Nov-30 19:33N 55°30' W 001°12'2015.5
2016-Nov-30 18:17N 55°44' W 001°36'1216.2
2016-Nov-30 17:33N 55°53' W 001°51'1616.2
2016-Nov-30 16:34N 56°01' W 002°16'1616.2
2016-Nov-30 15:33N 56°06' W 002°44'1414.4
2016-Nov-30 14:34N 56°03' W 003°09'10 0.2
2016-Nov-28 12:32N 56°01' W 003°26'1010.0
2016-Nov-28 11:33N 56°03' W 003°09'6 5.7
2016-Nov-28 10:33N 56°04' W 002°59'5 5.2
2016-Nov-28 09:33N 56°06' W 002°50'6 5.6
2016-Nov-28 08:33N 56°07' W 002°40'6 5.7
2016-Nov-28 07:33N 56°07' W 002°30'6 6.0
2016-Nov-28 06:33N 56°06' W 002°19'6 6.2
2016-Nov-28 05:33N 56°03' W 002°09'7 7.0
2016-Nov-28 04:33N 55°59' W 001°59'7 6.7
2016-Nov-28 03:33N 55°54' W 001°50'7 6.8
2016-Nov-28 02:28N 55°49' W 001°40'13 6.5
2016-Nov-28 00:31N 55°41' W 001°23'7 6.6
2016-Nov-27 23:30N 55°35' W 001°19'7 7.1
2016-Nov-27 22:33N 55°28' W 001°19'7 7.3
2016-Nov-27 21:33N 55°21' W 001°18'8 7.7
2016-Nov-27 20:33N 55°13' W 001°17'8 7.8
2016-Nov-27 19:33N 55°06' W 001°17'6 6.4
2016-Nov-27 18:33N 55°01' W 001°24'4 3.9
2016-Nov-27 17:32N 54°59' W 001°31'1 0.0
2016-Nov-25 19:05N 54°58' W 001°32'0 0.0
2016-Nov-25 03:23N 54°58' W 001°32'0 0.0
2016-Nov-25 02:32N 54°58' W 001°32'0 0.0
2016-Nov-25 01:32N 54°58' W 001°32'0 0.0
2016-Nov-25 00:32N 54°58' W 001°32'0 0.0
2016-Nov-24 23:29N 54°58' W 001°32'0 0.0
2016-Nov-24 22:29N 54°58' W 001°32'0 0.0
2016-Nov-24 21:32N 54°58' W 001°32'0 0.0
2016-Nov-24 13:23N 54°58' W 001°32'2 1.8
2016-Nov-24 12:33N 54°59' W 001°31'6 5.9
2016-Nov-24 11:33N 55°01' W 001°21'1 1.5
2016-Nov-24 10:33N 55°03' W 001°19'0 0.3
2016-Nov-24 09:33N 55°02' W 001°20'7 7.0
2016-Nov-24 08:33N 54°58' W 001°09'3417.0
2016-Nov-24 06:33N 54°40' W 000°20'1717.1
2016-Nov-24 05:33N 54°27' E 000°00'1717.0
2016-Nov-24 04:33N 54°14' E 000°18'6415.5
2016-Nov-24 00:25N 53°22' E 001°23'1415.7
2016-Nov-23 23:33N 53°13' E 001°39'9315.3
2016-Nov-23 17:31N 51°55' E 003°03'1515.3
2016-Nov-23 16:33N 51°43' E 003°16'1313.1
2016-Nov-23 15:33N 51°32' E 003°26'1010.3
2016-Nov-23 14:33N 51°27' E 003°40'2 1.6
2016-Nov-23 13:33N 51°28' E 003°42'0 0.0
2016-Nov-23 12:27N 51°28' E 003°42'0 0.0
2016-Nov-23 11:33N 51°28' E 003°42'0 0.0
2016-Nov-23 10:30N 51°28' E 003°42'0 0.0
2016-Nov-23 09:30N 51°28' E 003°42'0 0.0
2016-Nov-23 08:33N 51°28' E 003°42'0 0.0
2016-Nov-23 07:33N 51°28' E 003°42'0 0.0
2016-Nov-23 06:33N 51°28' E 003°42'0 0.0
2016-Nov-23 03:33N 51°28' E 003°42'0 0.0
2016-Nov-23 02:33N 51°28' E 003°42'0 0.0
2016-Nov-23 00:33N 51°28' E 003°42'0 0.0
2016-Nov-22 23:33N 51°28' E 003°42'0 0.0
2016-Nov-22 22:33N 51°28' E 003°42'0 0.0
2016-Nov-22 20:33N 51°28' E 003°42'0 0.0
2016-Nov-22 19:34N 51°28' E 003°42'0 0.0
2016-Nov-22 17:33N 51°28' E 003°42'0 0.0
2016-Nov-22 16:33N 51°28' E 003°42'0 0.0
2016-Nov-22 15:34N 51°28' E 003°42'0 0.0
2016-Nov-22 14:34N 51°28' E 003°42'0 0.0
2016-Nov-22 13:34N 51°28' E 003°42'0 0.0
2016-Nov-22 10:34N 51°28' E 003°42'0 0.0
2016-Nov-22 09:34N 51°28' E 003°42'0 0.0
2016-Nov-22 08:34N 51°28' E 003°42'  

Dump ship's entire track history